sensor_id;sensor_type;location;lat;lon;timestamp;temperature;humidity
909;DHT22;441;51.192;6.788;2022-09-27T00:01:54;20.70;96.20
909;DHT22;441;51.192;6.788;2022-09-27T00:04:21;20.70;96.30
909;DHT22;441;51.192;6.788;2022-09-27T00:06:49;20.70;96.30
909;DHT22;441;51.192;6.788;2022-09-27T00:09:16;20.70;96.30
909;DHT22;441;51.192;6.788;2022-09-27T00:11:43;20.70;96.30
909;DHT22;441;51.192;6.788;2022-09-27T00:14:11;20.70;96.20
909;DHT22;441;51.192;6.788;2022-09-27T00:16:40;20.70;96.30
909;DHT22;441;51.192;6.788;2022-09-27T00:19:10;20.70;96.30
909;DHT22;441;51.192;6.788;2022-09-27T00:21:38;20.70;96.20
909;DHT22;441;51.192;6.788;2022-09-27T00:24:10;20.70;96.20
909;DHT22;441;51.192;6.788;2022-09-27T00:26:37;20.70;96.20
909;DHT22;441;51.192;6.788;2022-09-27T00:29:04;20.60;96.20
909;DHT22;441;51.192;6.788;2022-09-27T00:31:31;20.60;96.20
909;DHT22;441;51.192;6.788;2022-09-27T00:34:00;20.60;96.20
909;DHT22;441;51.192;6.788;2022-09-27T00:36:28;20.60;96.30
909;DHT22;441;51.192;6.788;2022-09-27T00:38:55;20.60;96.30
909;DHT22;441;51.192;6.788;2022-09-27T00:41:27;20.60;96.30
909;DHT22;441;51.192;6.788;2022-09-27T00:43:56;20.60;96.30
909;DHT22;441;51.192;6.788;2022-09-27T00:46:27;20.60;96.20
909;DHT22;441;51.192;6.788;2022-09-27T00:49:03;20.60;96.30
909;DHT22;441;51.192;6.788;2022-09-27T00:51:33;20.60;96.30
909;DHT22;441;51.192;6.788;2022-09-27T00:54:04;20.60;96.20
909;DHT22;441;51.192;6.788;2022-09-27T00:56:33;20.50;96.30
909;DHT22;441;51.192;6.788;2022-09-27T00:59:04;20.50;96.20
909;DHT22;441;51.192;6.788;2022-09-27T01:01:32;20.50;96.20
909;DHT22;441;51.192;6.788;2022-09-27T01:04:04;20.50;96.30
909;DHT22;441;51.192;6.788;2022-09-27T01:06:32;20.50;96.20
909;DHT22;441;51.192;6.788;2022-09-27T01:08:59;20.50;96.30
909;DHT22;441;51.192;6.788;2022-09-27T01:11:37;20.50;96.20
909;DHT22;441;51.192;6.788;2022-09-27T01:14:16;20.50;96.20
909;DHT22;441;51.192;6.788;2022-09-27T01:16:54;20.50;96.20
909;DHT22;441;51.192;6.788;2022-09-27T01:19:49;20.50;96.20
909;DHT22;441;51.192;6.788;2022-09-27T01:22:23;20.50;96.10
909;DHT22;441;51.192;6.788;2022-09-27T01:28:09;20.40;96.20
909;DHT22;441;51.192;6.788;2022-09-27T01:30:43;20.40;96.20
909;DHT22;441;51.192;6.788;2022-09-27T01:33:23;20.40;96.20
909;DHT22;441;51.192;6.788;2022-09-27T01:36:06;20.40;96.10
909;DHT22;441;51.192;6.788;2022-09-27T01:38:50;20.40;96.10
909;DHT22;441;51.192;6.788;2022-09-27T01:41:27;20.40;96.00
909;DHT22;441;51.192;6.788;2022-09-27T01:44:01;20.40;96.10
909;DHT22;441;51.192;6.788;2022-09-27T01:46:33;20.40;96.40
909;DHT22;441;51.192;6.788;2022-09-27T01:49:08;20.40;96.10
909;DHT22;441;51.192;6.788;2022-09-27T01:51:39;20.30;96.00
909;DHT22;441;51.192;6.788;2022-09-27T01:54:14;20.30;95.90
909;DHT22;441;51.192;6.788;2022-09-27T01:56:46;20.30;95.90
909;DHT22;441;51.192;6.788;2022-09-27T01:59:17;20.30;96.00
909;DHT22;441;51.192;6.788;2022-09-27T02:01:50;20.30;95.90
909;DHT22;441;51.192;6.788;2022-09-27T02:04:21;20.30;96.00
909;DHT22;441;51.192;6.788;2022-09-27T02:06:55;20.30;96.00
909;DHT22;441;51.192;6.788;2022-09-27T02:09:28;20.30;95.90
909;DHT22;441;51.192;6.788;2022-09-27T02:11:59;20.30;95.80
909;DHT22;441;51.192;6.788;2022-09-27T02:14:32;20.30;95.90
909;DHT22;441;51.192;6.788;2022-09-27T02:17:08;20.30;95.80
909;DHT22;441;51.192;6.788;2022-09-27T02:19:42;20.30;95.80
909;DHT22;441;51.192;6.788;2022-09-27T02:22:15;20.30;95.90
909;DHT22;441;51.192;6.788;2022-09-27T02:24:47;20.30;96.00
909;DHT22;441;51.192;6.788;2022-09-27T02:27:21;20.30;95.80
909;DHT22;441;51.192;6.788;2022-09-27T02:29:55;20.20;95.90
909;DHT22;441;51.192;6.788;2022-09-27T02:32:25;20.20;95.90
909;DHT22;441;51.192;6.788;2022-09-27T02:34:52;20.30;95.80
909;DHT22;441;51.192;6.788;2022-09-27T02:37:22;20.20;95.80
909;DHT22;441;51.192;6.788;2022-09-27T02:39:49;20.20;95.80
909;DHT22;441;51.192;6.788;2022-09-27T02:42:15;20.20;95.90
909;DHT22;441;51.192;6.788;2022-09-27T02:44:42;20.20;95.80
909;DHT22;441;51.192;6.788;2022-09-27T02:47:34;20.20;95.70
909;DHT22;441;51.192;6.788;2022-09-27T02:50:21;20.20;95.80
909;DHT22;441;51.192;6.788;2022-09-27T02:53:01;20.20;95.70
909;DHT22;441;51.192;6.788;2022-09-27T02:55:45;20.20;95.70
909;DHT22;441;51.192;6.788;2022-09-27T02:58:21;20.20;95.90
909;DHT22;441;51.192;6.788;2022-09-27T03:00:58;20.20;95.90
909;DHT22;441;51.192;6.788;2022-09-27T03:03:34;20.10;95.70
909;DHT22;441;51.192;6.788;2022-09-27T03:06:05;20.20;95.80
909;DHT22;441;51.192;6.788;2022-09-27T03:08:33;20.10;95.80
909;DHT22;441;51.192;6.788;2022-09-27T03:11:00;20.10;95.80
909;DHT22;441;51.192;6.788;2022-09-27T03:13:27;20.10;95.70
909;DHT22;441;51.192;6.788;2022-09-27T03:15:54;20.20;95.80
909;DHT22;441;51.192;6.788;2022-09-27T03:18:21;20.10;95.70
909;DHT22;441;51.192;6.788;2022-09-27T03:20:51;20.10;95.70
909;DHT22;441;51.192;6.788;2022-09-27T03:23:18;20.10;95.80
909;DHT22;441;51.192;6.788;2022-09-27T03:25:45;20.10;95.80
909;DHT22;441;51.192;6.788;2022-09-27T03:28:12;20.10;95.70
909;DHT22;441;51.192;6.788;2022-09-27T03:30:39;20.10;95.80
909;DHT22;441;51.192;6.788;2022-09-27T03:33:07;20.10;95.70
909;DHT22;441;51.192;6.788;2022-09-27T03:35:34;20.10;95.70
909;DHT22;441;51.192;6.788;2022-09-27T03:38:04;20.10;95.70
909;DHT22;441;51.192;6.788;2022-09-27T03:40:31;20.10;95.70
909;DHT22;441;51.192;6.788;2022-09-27T03:42:58;20.10;95.70
909;DHT22;441;51.192;6.788;2022-09-27T03:45:25;20.10;95.70
909;DHT22;441;51.192;6.788;2022-09-27T03:47:52;20.10;95.80
909;DHT22;441;51.192;6.788;2022-09-27T03:50:19;20.10;95.80
909;DHT22;441;51.192;6.788;2022-09-27T03:52:46;20.00;95.80
909;DHT22;441;51.192;6.788;2022-09-27T03:55:15;20.00;95.70
909;DHT22;441;51.192;6.788;2022-09-27T03:57:44;20.00;95.70
909;DHT22;441;51.192;6.788;2022-09-27T04:00:12;20.00;95.80
909;DHT22;441;51.192;6.788;2022-09-27T04:02:39;20.00;95.80
909;DHT22;441;51.192;6.788;2022-09-27T04:05:06;20.00;95.90
909;DHT22;441;51.192;6.788;2022-09-27T04:07:33;20.00;95.80
909;DHT22;441;51.192;6.788;2022-09-27T04:10:00;20.00;95.80
909;DHT22;441;51.192;6.788;2022-09-27T04:12:28;20.00;95.90
909;DHT22;441;51.192;6.788;2022-09-27T04:14:55;20.00;95.70
909;DHT22;441;51.192;6.788;2022-09-27T04:17:22;20.00;95.80
909;DHT22;441;51.192;6.788;2022-09-27T04:19:50;20.00;95.80
909;DHT22;441;51.192;6.788;2022-09-27T04:22:17;19.90;95.80
909;DHT22;441;51.192;6.788;2022-09-27T04:24:44;19.90;95.70
909;DHT22;441;51.192;6.788;2022-09-27T04:27:10;19.90;95.80
909;DHT22;441;51.192;6.788;2022-09-27T04:29:39;19.90;95.80
909;DHT22;441;51.192;6.788;2022-09-27T04:32:07;20.00;95.80
909;DHT22;441;51.192;6.788;2022-09-27T04:34:34;19.90;95.70
909;DHT22;441;51.192;6.788;2022-09-27T04:37:18;19.90;95.70
909;DHT22;441;51.192;6.788;2022-09-27T04:39:45;19.90;95.60
909;DHT22;441;51.192;6.788;2022-09-27T04:42:13;19.90;95.70
909;DHT22;441;51.192;6.788;2022-09-27T04:44:42;19.90;95.80
909;DHT22;441;51.192;6.788;2022-09-27T04:47:09;19.90;95.80
909;DHT22;441;51.192;6.788;2022-09-27T04:49:36;19.90;95.90
909;DHT22;441;51.192;6.788;2022-09-27T04:52:03;19.90;95.90
909;DHT22;441;51.192;6.788;2022-09-27T04:54:31;19.80;95.90
909;DHT22;441;51.192;6.788;2022-09-27T04:56:58;19.80;95.90
909;DHT22;441;51.192;6.788;2022-09-27T04:59:24;19.80;95.70
909;DHT22;441;51.192;6.788;2022-09-27T05:01:53;19.80;95.80
909;DHT22;441;51.192;6.788;2022-09-27T05:04:20;19.80;95.90
909;DHT22;441;51.192;6.788;2022-09-27T05:06:47;19.80;95.90
909;DHT22;441;51.192;6.788;2022-09-27T05:09:14;19.80;95.90
909;DHT22;441;51.192;6.788;2022-09-27T05:11:41;19.80;95.70
909;DHT22;441;51.192;6.788;2022-09-27T05:14:08;19.80;95.70
909;DHT22;441;51.192;6.788;2022-09-27T05:16:35;19.80;95.60
909;DHT22;441;51.192;6.788;2022-09-27T05:19:03;19.80;95.60
909;DHT22;441;51.192;6.788;2022-09-27T05:21:30;19.80;95.70
909;DHT22;441;51.192;6.788;2022-09-27T05:23:57;19.80;96.70
909;DHT22;441;51.192;6.788;2022-09-27T05:26:25;19.80;97.10
909;DHT22;441;51.192;6.788;2022-09-27T05:28:52;19.80;99.50
909;DHT22;441;51.192;6.788;2022-09-27T05:31:19;19.80;99.90
909;DHT22;441;51.192;6.788;2022-09-27T05:33:46;19.80;99.90
909;DHT22;441;51.192;6.788;2022-09-27T05:36:14;19.80;99.90
909;DHT22;441;51.192;6.788;2022-09-27T05:38:41;19.80;99.90
909;DHT22;441;51.192;6.788;2022-09-27T05:41:08;19.70;99.90
909;DHT22;441;51.192;6.788;2022-09-27T05:43:35;19.70;99.90
909;DHT22;441;51.192;6.788;2022-09-27T05:46:02;19.70;99.90
909;DHT22;441;51.192;6.788;2022-09-27T05:48:30;19.70;99.90
909;DHT22;441;51.192;6.788;2022-09-27T05:50:57;19.70;99.90
909;DHT22;441;51.192;6.788;2022-09-27T05:53:25;19.70;99.90
909;DHT22;441;51.192;6.788;2022-09-27T05:55:52;19.70;99.90
909;DHT22;441;51.192;6.788;2022-09-27T05:58:19;19.70;99.90
909;DHT22;441;51.192;6.788;2022-09-27T06:00:45;19.70;99.90
909;DHT22;441;51.192;6.788;2022-09-27T06:03:12;19.70;99.90
909;DHT22;441;51.192;6.788;2022-09-27T06:05:39;19.70;99.90
909;DHT22;441;51.192;6.788;2022-09-27T06:08:08;19.70;99.90
909;DHT22;441;51.192;6.788;2022-09-27T06:10:37;19.70;99.90
909;DHT22;441;51.192;6.788;2022-09-27T06:13:06;19.70;99.90
909;DHT22;441;51.192;6.788;2022-09-27T06:15:34;19.70;99.90
909;DHT22;441;51.192;6.788;2022-09-27T06:18:03;19.70;99.90
909;DHT22;441;51.192;6.788;2022-09-27T06:20:31;19.70;99.90
909;DHT22;441;51.192;6.788;2022-09-27T06:23:06;19.60;99.90
909;DHT22;441;51.192;6.788;2022-09-27T06:25:33;19.60;99.80
909;DHT22;441;51.192;6.788;2022-09-27T06:28:03;19.60;99.60
909;DHT22;441;51.192;6.788;2022-09-27T06:30:30;19.60;99.50
909;DHT22;441;51.192;6.788;2022-09-27T06:32:58;19.60;99.40
909;DHT22;441;51.192;6.788;2022-09-27T06:35:26;19.60;99.20
909;DHT22;441;51.192;6.788;2022-09-27T06:37:54;19.60;99.00
909;DHT22;441;51.192;6.788;2022-09-27T06:40:21;19.60;99.00
909;DHT22;441;51.192;6.788;2022-09-27T06:42:49;19.60;98.70
909;DHT22;441;51.192;6.788;2022-09-27T06:45:17;19.60;98.70
909;DHT22;441;51.192;6.788;2022-09-27T06:47:44;19.60;98.60
909;DHT22;441;51.192;6.788;2022-09-27T06:50:12;19.60;98.50
909;DHT22;441;51.192;6.788;2022-09-27T06:52:46;19.60;98.40
909;DHT22;441;51.192;6.788;2022-09-27T06:55:13;19.60;98.30
909;DHT22;441;51.192;6.788;2022-09-27T06:57:40;19.60;98.30
909;DHT22;441;51.192;6.788;2022-09-27T07:00:26;19.60;98.20
909;DHT22;441;51.192;6.788;2022-09-27T07:02:54;19.60;98.10
909;DHT22;441;51.192;6.788;2022-09-27T07:05:26;19.50;98.00
909;DHT22;441;51.192;6.788;2022-09-27T07:07:54;19.50;97.80
909;DHT22;441;51.192;6.788;2022-09-27T07:10:23;19.50;97.70
909;DHT22;441;51.192;6.788;2022-09-27T07:12:50;19.50;97.70
909;DHT22;441;51.192;6.788;2022-09-27T07:15:17;19.50;97.60
909;DHT22;441;51.192;6.788;2022-09-27T07:17:47;19.50;97.60
909;DHT22;441;51.192;6.788;2022-09-27T07:20:14;19.50;97.40
909;DHT22;441;51.192;6.788;2022-09-27T07:22:41;19.50;97.40
909;DHT22;441;51.192;6.788;2022-09-27T07:25:09;19.50;97.30
909;DHT22;441;51.192;6.788;2022-09-27T07:27:36;19.50;97.30
909;DHT22;441;51.192;6.788;2022-09-27T07:30:06;19.50;97.20
909;DHT22;441;51.192;6.788;2022-09-27T07:32:34;19.50;97.10
909;DHT22;441;51.192;6.788;2022-09-27T07:35:03;19.50;97.10
909;DHT22;441;51.192;6.788;2022-09-27T07:37:31;19.50;97.00
909;DHT22;441;51.192;6.788;2022-09-27T07:39:58;19.50;96.90
909;DHT22;441;51.192;6.788;2022-09-27T07:42:25;19.50;96.80
909;DHT22;441;51.192;6.788;2022-09-27T07:44:53;19.50;96.80
909;DHT22;441;51.192;6.788;2022-09-27T07:47:20;19.50;96.70
909;DHT22;441;51.192;6.788;2022-09-27T07:49:48;19.50;96.70
909;DHT22;441;51.192;6.788;2022-09-27T07:52:18;19.50;96.60
909;DHT22;441;51.192;6.788;2022-09-27T07:54:45;19.50;96.60
909;DHT22;441;51.192;6.788;2022-09-27T07:57:12;19.50;96.60
909;DHT22;441;51.192;6.788;2022-09-27T07:59:39;19.50;96.50
909;DHT22;441;51.192;6.788;2022-09-27T08:02:07;19.50;96.40
909;DHT22;441;51.192;6.788;2022-09-27T08:04:36;19.40;96.30
909;DHT22;441;51.192;6.788;2022-09-27T08:07:03;19.50;96.30
909;DHT22;441;51.192;6.788;2022-09-27T08:09:32;19.40;96.20
909;DHT22;441;51.192;6.788;2022-09-27T08:11:59;19.40;96.20
909;DHT22;441;51.192;6.788;2022-09-27T08:14:26;19.40;96.20
909;DHT22;441;51.192;6.788;2022-09-27T08:16:52;19.40;96.10
909;DHT22;441;51.192;6.788;2022-09-27T08:19:20;19.40;96.00
909;DHT22;441;51.192;6.788;2022-09-27T08:21:47;19.40;96.00
909;DHT22;441;51.192;6.788;2022-09-27T08:24:14;19.40;96.00
909;DHT22;441;51.192;6.788;2022-09-27T08:26:42;19.40;95.90
909;DHT22;441;51.192;6.788;2022-09-27T08:29:09;19.40;95.90
909;DHT22;441;51.192;6.788;2022-09-27T08:31:37;19.40;95.80
909;DHT22;441;51.192;6.788;2022-09-27T08:34:04;19.40;95.80
909;DHT22;441;51.192;6.788;2022-09-27T08:36:31;19.40;95.70
909;DHT22;441;51.192;6.788;2022-09-27T08:39:00;19.40;95.70
909;DHT22;441;51.192;6.788;2022-09-27T08:41:34;19.40;95.70
909;DHT22;441;51.192;6.788;2022-09-27T08:44:11;19.40;95.60
909;DHT22;441;51.192;6.788;2022-09-27T08:46:46;19.40;95.60
909;DHT22;441;51.192;6.788;2022-09-27T08:49:22;19.40;95.50
909;DHT22;441;51.192;6.788;2022-09-27T08:51:51;19.40;95.50
909;DHT22;441;51.192;6.788;2022-09-27T08:54:21;19.40;95.40
909;DHT22;441;51.192;6.788;2022-09-27T08:56:49;19.40;95.40
909;DHT22;441;51.192;6.788;2022-09-27T08:59:22;19.40;95.40
909;DHT22;441;51.192;6.788;2022-09-27T09:01:52;19.30;95.30
909;DHT22;441;51.192;6.788;2022-09-27T09:04:34;19.40;95.30
909;DHT22;441;51.192;6.788;2022-09-27T09:07:09;19.40;95.20
909;DHT22;441;51.192;6.788;2022-09-27T09:09:44;19.40;95.20
909;DHT22;441;51.192;6.788;2022-09-27T09:12:22;19.40;95.10
909;DHT22;441;51.192;6.788;2022-09-27T09:15:30;19.40;95.10
909;DHT22;441;51.192;6.788;2022-09-27T09:18:18;19.40;95.10
909;DHT22;441;51.192;6.788;2022-09-27T09:20:54;19.30;95.00
909;DHT22;441;51.192;6.788;2022-09-27T09:23:46;19.40;95.30
909;DHT22;441;51.192;6.788;2022-09-27T09:26:20;19.40;95.00
909;DHT22;441;51.192;6.788;2022-09-27T09:28:59;19.40;94.90
909;DHT22;441;51.192;6.788;2022-09-27T09:31:38;19.40;94.90
909;DHT22;441;51.192;6.788;2022-09-27T09:34:11;19.30;94.80
909;DHT22;441;51.192;6.788;2022-09-27T09:36:43;19.30;94.80
909;DHT22;441;51.192;6.788;2022-09-27T09:39:15;19.40;94.80
909;DHT22;441;51.192;6.788;2022-09-27T09:41:49;19.40;94.70
909;DHT22;441;51.192;6.788;2022-09-27T09:44:23;19.40;94.70
909;DHT22;441;51.192;6.788;2022-09-27T09:46:56;19.40;94.60
909;DHT22;441;51.192;6.788;2022-09-27T09:49:27;19.40;94.60
909;DHT22;441;51.192;6.788;2022-09-27T09:51:58;19.40;94.60
909;DHT22;441;51.192;6.788;2022-09-27T09:54:29;19.40;94.50
909;DHT22;441;51.192;6.788;2022-09-27T09:57:04;19.40;94.50
909;DHT22;441;51.192;6.788;2022-09-27T09:59:37;19.30;94.40
909;DHT22;441;51.192;6.788;2022-09-27T10:02:17;19.40;94.40
909;DHT22;441;51.192;6.788;2022-09-27T10:04:46;19.40;94.40
909;DHT22;441;51.192;6.788;2022-09-27T10:07:14;19.40;94.30
909;DHT22;441;51.192;6.788;2022-09-27T10:09:42;19.30;94.30
909;DHT22;441;51.192;6.788;2022-09-27T10:12:09;19.30;94.20
909;DHT22;441;51.192;6.788;2022-09-27T10:14:37;19.40;94.20
909;DHT22;441;51.192;6.788;2022-09-27T10:17:10;19.40;94.20
909;DHT22;441;51.192;6.788;2022-09-27T10:19:40;19.40;94.20
909;DHT22;441;51.192;6.788;2022-09-27T10:22:13;19.40;94.10
909;DHT22;441;51.192;6.788;2022-09-27T10:24:53;19.40;94.10
909;DHT22;441;51.192;6.788;2022-09-27T10:27:21;19.40;94.10
909;DHT22;441;51.192;6.788;2022-09-27T10:29:55;19.40;94.00
909;DHT22;441;51.192;6.788;2022-09-27T10:32:27;19.40;94.00
909;DHT22;441;51.192;6.788;2022-09-27T10:35:18;19.40;93.90
909;DHT22;441;51.192;6.788;2022-09-27T10:37:45;19.40;93.90
909;DHT22;441;51.192;6.788;2022-09-27T10:40:25;19.40;93.80
909;DHT22;441;51.192;6.788;2022-09-27T10:42:52;19.40;93.90
909;DHT22;441;51.192;6.788;2022-09-27T10:45:25;19.40;93.80
909;DHT22;441;51.192;6.788;2022-09-27T10:47:54;19.40;93.80
909;DHT22;441;51.192;6.788;2022-09-27T10:50:24;19.40;93.70
909;DHT22;441;51.192;6.788;2022-09-27T10:53:00;19.30;93.60
909;DHT22;441;51.192;6.788;2022-09-27T10:55:31;19.40;93.70
909;DHT22;441;51.192;6.788;2022-09-27T10:57:59;19.40;93.70
909;DHT22;441;51.192;6.788;2022-09-27T11:00:29;19.40;93.60
909;DHT22;441;51.192;6.788;2022-09-27T11:03:00;19.30;93.50
909;DHT22;441;51.192;6.788;2022-09-27T11:05:33;19.40;93.60
909;DHT22;441;51.192;6.788;2022-09-27T11:08:02;19.40;93.50
909;DHT22;441;51.192;6.788;2022-09-27T11:10:30;19.40;93.50
909;DHT22;441;51.192;6.788;2022-09-27T11:13:11;19.30;93.40
909;DHT22;441;51.192;6.788;2022-09-27T11:15:50;19.30;93.40
909;DHT22;441;51.192;6.788;2022-09-27T11:18:30;19.40;93.40
909;DHT22;441;51.192;6.788;2022-09-27T11:21:04;19.40;93.30
909;DHT22;441;51.192;6.788;2022-09-27T11:23:52;19.30;93.20
909;DHT22;441;51.192;6.788;2022-09-27T11:26:31;19.40;93.30
909;DHT22;441;51.192;6.788;2022-09-27T11:29:12;19.30;93.20
909;DHT22;441;51.192;6.788;2022-09-27T11:31:47;19.40;93.30
909;DHT22;441;51.192;6.788;2022-09-27T11:37:42;19.40;93.10
909;DHT22;441;51.192;6.788;2022-09-27T11:40:22;19.40;93.10
909;DHT22;441;51.192;6.788;2022-09-27T11:43:14;19.40;93.10
909;DHT22;441;51.192;6.788;2022-09-27T11:45:52;19.40;93.10
909;DHT22;441;51.192;6.788;2022-09-27T11:48:31;19.40;93.10
909;DHT22;441;51.192;6.788;2022-09-27T11:51:07;19.40;93.00
909;DHT22;441;51.192;6.788;2022-09-27T11:53:58;19.30;93.00
909;DHT22;441;51.192;6.788;2022-09-27T11:56:36;19.40;93.00
909;DHT22;441;51.192;6.788;2022-09-27T11:59:35;19.40;93.00
909;DHT22;441;51.192;6.788;2022-09-27T12:02:20;19.40;92.90
909;DHT22;441;51.192;6.788;2022-09-27T12:05:05;19.40;92.90
909;DHT22;441;51.192;6.788;2022-09-27T12:08:07;19.40;92.80
909;DHT22;441;51.192;6.788;2022-09-27T12:10:41;19.40;92.80
909;DHT22;441;51.192;6.788;2022-09-27T12:13:13;19.40;92.80
909;DHT22;441;51.192;6.788;2022-09-27T12:15:42;19.40;92.80
909;DHT22;441;51.192;6.788;2022-09-27T12:18:15;19.40;92.80
909;DHT22;441;51.192;6.788;2022-09-27T12:20:47;19.40;92.70
909;DHT22;441;51.192;6.788;2022-09-27T12:23:19;19.40;92.60
909;DHT22;441;51.192;6.788;2022-09-27T12:25:50;19.40;92.60
909;DHT22;441;51.192;6.788;2022-09-27T12:28:25;19.40;92.50
909;DHT22;441;51.192;6.788;2022-09-27T12:31:04;19.40;92.50
909;DHT22;441;51.192;6.788;2022-09-27T12:33:37;19.40;92.50
909;DHT22;441;51.192;6.788;2022-09-27T12:36:11;19.40;92.50
909;DHT22;441;51.192;6.788;2022-09-27T12:38:44;19.40;92.50
909;DHT22;441;51.192;6.788;2022-09-27T12:41:17;19.50;92.50
909;DHT22;441;51.192;6.788;2022-09-27T12:43:47;19.40;92.40
909;DHT22;441;51.192;6.788;2022-09-27T12:46:21;19.50;92.40
909;DHT22;441;51.192;6.788;2022-09-27T12:48:55;19.40;92.30
909;DHT22;441;51.192;6.788;2022-09-27T12:51:31;19.40;92.30
909;DHT22;441;51.192;6.788;2022-09-27T12:54:16;19.50;92.30
909;DHT22;441;51.192;6.788;2022-09-27T12:56:58;19.40;92.20
909;DHT22;441;51.192;6.788;2022-09-27T12:59:38;19.40;92.20
909;DHT22;441;51.192;6.788;2022-09-27T13:05:54;19.40;92.20
909;DHT22;441;51.192;6.788;2022-09-27T13:08:37;19.40;92.10
909;DHT22;441;51.192;6.788;2022-09-27T13:11:12;19.40;92.10
909;DHT22;441;51.192;6.788;2022-09-27T13:13:43;19.40;92.10
909;DHT22;441;51.192;6.788;2022-09-27T13:16:10;19.40;92.10
909;DHT22;441;51.192;6.788;2022-09-27T13:18:52;19.40;92.10
909;DHT22;441;51.192;6.788;2022-09-27T13:21:57;19.40;92.00
909;DHT22;441;51.192;6.788;2022-09-27T13:24:39;19.40;92.00
909;DHT22;441;51.192;6.788;2022-09-27T13:33:41;19.40;91.90
909;DHT22;441;51.192;6.788;2022-09-27T13:36:26;19.40;91.90
909;DHT22;441;51.192;6.788;2022-09-27T13:39:04;19.50;91.90
909;DHT22;441;51.192;6.788;2022-09-27T13:41:50;19.50;91.90
909;DHT22;441;51.192;6.788;2022-09-27T13:44:21;19.40;91.80
909;DHT22;441;51.192;6.788;2022-09-27T13:46:54;19.40;91.80
909;DHT22;441;51.192;6.788;2022-09-27T13:49:29;19.40;91.80
909;DHT22;441;51.192;6.788;2022-09-27T13:52:00;19.40;91.80
909;DHT22;441;51.192;6.788;2022-09-27T13:54:38;19.50;91.80
909;DHT22;441;51.192;6.788;2022-09-27T14:00:10;19.50;91.70
909;DHT22;441;51.192;6.788;2022-09-27T14:02:44;19.50;91.70
909;DHT22;441;51.192;6.788;2022-09-27T14:05:20;19.50;91.70
909;DHT22;441;51.192;6.788;2022-09-27T14:07:50;19.50;91.70
909;DHT22;441;51.192;6.788;2022-09-27T14:10:19;19.40;91.60
909;DHT22;441;51.192;6.788;2022-09-27T14:12:49;19.50;91.60
909;DHT22;441;51.192;6.788;2022-09-27T14:15:20;19.50;91.60
909;DHT22;441;51.192;6.788;2022-09-27T14:17:48;19.50;91.60
909;DHT22;441;51.192;6.788;2022-09-27T14:20:35;19.50;91.60
909;DHT22;441;51.192;6.788;2022-09-27T14:23:05;19.50;91.50
909;DHT22;441;51.192;6.788;2022-09-27T14:25:32;19.50;91.50
909;DHT22;441;51.192;6.788;2022-09-27T14:27:59;19.50;91.50
909;DHT22;441;51.192;6.788;2022-09-27T14:30:28;19.50;91.50
909;DHT22;441;51.192;6.788;2022-09-27T14:32:56;19.50;91.40
909;DHT22;441;51.192;6.788;2022-09-27T14:35:28;19.50;91.40
909;DHT22;441;51.192;6.788;2022-09-27T14:38:16;19.50;91.40
909;DHT22;441;51.192;6.788;2022-09-27T14:40:53;19.50;91.40
909;DHT22;441;51.192;6.788;2022-09-27T14:43:21;19.50;91.30
909;DHT22;441;51.192;6.788;2022-09-27T14:45:49;19.50;91.30
909;DHT22;441;51.192;6.788;2022-09-27T14:48:20;19.50;91.30
909;DHT22;441;51.192;6.788;2022-09-27T14:50:54;19.50;91.30
909;DHT22;441;51.192;6.788;2022-09-27T14:53:27;19.50;91.30
909;DHT22;441;51.192;6.788;2022-09-27T14:55:54;19.50;91.30
909;DHT22;441;51.192;6.788;2022-09-27T14:58:22;19.50;91.30
909;DHT22;441;51.192;6.788;2022-09-27T15:00:50;19.50;91.60
909;DHT22;441;51.192;6.788;2022-09-27T15:03:22;19.50;91.20
909;DHT22;441;51.192;6.788;2022-09-27T15:05:51;19.50;91.20
909;DHT22;441;51.192;6.788;2022-09-27T15:08:21;19.50;91.20
909;DHT22;441;51.192;6.788;2022-09-27T15:10:50;19.50;91.20
909;DHT22;441;51.192;6.788;2022-09-27T15:13:19;19.50;91.10
909;DHT22;441;51.192;6.788;2022-09-27T15:15:46;19.50;91.10
909;DHT22;441;51.192;6.788;2022-09-27T15:18:38;19.50;91.10
909;DHT22;441;51.192;6.788;2022-09-27T15:21:06;19.50;91.20
909;DHT22;441;51.192;6.788;2022-09-27T15:23:35;19.50;91.10
909;DHT22;441;51.192;6.788;2022-09-27T15:26:07;19.50;91.10
909;DHT22;441;51.192;6.788;2022-09-27T15:28:36;19.50;91.10
909;DHT22;441;51.192;6.788;2022-09-27T15:31:07;19.50;91.00
909;DHT22;441;51.192;6.788;2022-09-27T15:33:35;19.50;91.00
909;DHT22;441;51.192;6.788;2022-09-27T15:36:03;19.50;91.00
909;DHT22;441;51.192;6.788;2022-09-27T15:38:31;19.50;91.00
909;DHT22;441;51.192;6.788;2022-09-27T15:41:05;19.50;91.00
909;DHT22;441;51.192;6.788;2022-09-27T15:43:35;19.50;91.00
909;DHT22;441;51.192;6.788;2022-09-27T15:46:22;19.50;90.90
909;DHT22;441;51.192;6.788;2022-09-27T15:52:02;19.50;90.90
909;DHT22;441;51.192;6.788;2022-09-27T15:54:32;19.50;90.90
909;DHT22;441;51.192;6.788;2022-09-27T15:57:03;19.40;90.90
909;DHT22;441;51.192;6.788;2022-09-27T15:59:33;19.40;90.90
909;DHT22;441;51.192;6.788;2022-09-27T16:02:01;19.40;90.90
909;DHT22;441;51.192;6.788;2022-09-27T16:04:30;19.40;90.90
909;DHT22;441;51.192;6.788;2022-09-27T16:06:59;19.40;90.90
909;DHT22;441;51.192;6.788;2022-09-27T16:09:26;19.40;90.90
909;DHT22;441;51.192;6.788;2022-09-27T16:11:53;19.40;90.80
909;DHT22;441;51.192;6.788;2022-09-27T16:14:21;19.40;90.80
909;DHT22;441;51.192;6.788;2022-09-27T16:16:50;19.40;90.80
909;DHT22;441;51.192;6.788;2022-09-27T16:19:18;19.40;90.80
909;DHT22;441;51.192;6.788;2022-09-27T16:21:45;19.40;90.80
909;DHT22;441;51.192;6.788;2022-09-27T16:24:13;19.40;92.50
909;DHT22;441;51.192;6.788;2022-09-27T16:26:40;19.40;94.20
909;DHT22;441;51.192;6.788;2022-09-27T16:29:09;19.50;94.90
909;DHT22;441;51.192;6.788;2022-09-27T16:31:38;19.50;95.50
909;DHT22;441;51.192;6.788;2022-09-27T16:34:05;19.50;95.30
909;DHT22;441;51.192;6.788;2022-09-27T16:36:32;19.50;95.30
909;DHT22;441;51.192;6.788;2022-09-27T16:39:00;19.50;95.40
909;DHT22;441;51.192;6.788;2022-09-27T16:41:29;19.50;95.60
909;DHT22;441;51.192;6.788;2022-09-27T16:43:56;19.50;95.90
909;DHT22;441;51.192;6.788;2022-09-27T16:46:23;19.50;95.70
909;DHT22;441;51.192;6.788;2022-09-27T16:48:51;19.40;95.10
909;DHT22;441;51.192;6.788;2022-09-27T16:51:21;19.40;94.80
909;DHT22;441;51.192;6.788;2022-09-27T16:54:16;19.40;95.00
909;DHT22;441;51.192;6.788;2022-09-27T16:56:44;19.40;94.60
909;DHT22;441;51.192;6.788;2022-09-27T16:59:10;19.40;94.90
909;DHT22;441;51.192;6.788;2022-09-27T17:01:38;19.40;95.50
909;DHT22;441;51.192;6.788;2022-09-27T17:04:06;19.40;95.60
909;DHT22;441;51.192;6.788;2022-09-27T17:06:35;19.50;95.70
909;DHT22;441;51.192;6.788;2022-09-27T17:09:03;19.50;95.80
909;DHT22;441;51.192;6.788;2022-09-27T17:11:30;19.50;96.20
909;DHT22;441;51.192;6.788;2022-09-27T17:13:57;19.50;96.20
909;DHT22;441;51.192;6.788;2022-09-27T17:16:25;19.50;95.60
909;DHT22;441;51.192;6.788;2022-09-27T17:18:53;19.40;95.30
909;DHT22;441;51.192;6.788;2022-09-27T17:21:21;19.50;95.40
909;DHT22;441;51.192;6.788;2022-09-27T17:23:48;19.50;95.80
909;DHT22;441;51.192;6.788;2022-09-27T17:26:18;19.50;95.50